sensor_id;sensor_type;location;lat;lon;timestamp;pressure;altitude;pressure_sealevel;temperature;humidity
79461;BME280;68929;42.666;23.324;2023-11-19T00:02:12;94521.09;;;6.52;nan
79461;BME280;68929;42.666;23.324;2023-11-19T00:04:38;94506.41;;;6.36;nan
79461;BME280;68929;42.666;23.324;2023-11-19T00:07:07;94490.69;;;5.88;nan
79461;BME280;68929;42.666;23.324;2023-11-19T00:09:36;94487.91;;;5.53;nan
79461;BME280;68929;42.666;23.324;2023-11-19T00:12:06;94476.88;;;6.28;nan
79461;BME280;68929;42.666;23.324;2023-11-19T00:14:32;94497.44;;;6.86;nan
79461;BME280;68929;42.666;23.324;2023-11-19T00:16:57;94487.44;;;7.09;nan
79461;BME280;68929;42.666;23.324;2023-11-19T00:19:23;94486.03;;;7.74;nan
79461;BME280;68929;42.666;23.324;2023-11-19T00:21:48;94477.47;;;7.52;nan
79461;BME280;68929;42.666;23.324;2023-11-19T00:24:14;94505.69;;;8.04;nan
79461;BME280;68929;42.666;23.324;2023-11-19T00:26:42;94487.59;;;7.49;nan
79461;BME280;68929;42.666;23.324;2023-11-19T00:29:08;94497.50;;;6.99;nan
79461;BME280;68929;42.666;23.324;2023-11-19T00:31:33;94486.63;;;7.02;nan
79461;BME280;68929;42.666;23.324;2023-11-19T00:33:59;94495.72;;;6.10;nan
79461;BME280;68929;42.666;23.324;2023-11-19T00:36:24;94511.78;;;6.01;nan
79461;BME280;68929;42.666;23.324;2023-11-19T00:38:51;94506.44;;;5.88;nan
79461;BME280;68929;42.666;23.324;2023-11-19T00:41:18;94508.38;;;6.28;nan
79461;BME280;68929;42.666;23.324;2023-11-19T00:43:43;94523.50;;;6.26;nan
79461;BME280;68929;42.666;23.324;2023-11-19T00:46:09;94511.34;;;5.76;nan
79461;BME280;68929;42.666;23.324;2023-11-19T00:48:36;94494.81;;;5.54;nan
79461;BME280;68929;42.666;23.324;2023-11-19T00:51:06;94498.94;;;5.85;nan
79461;BME280;68929;42.666;23.324;2023-11-19T00:53:32;94522.53;;;5.85;nan
79461;BME280;68929;42.666;23.324;2023-11-19T00:55:59;94507.81;;;6.05;nan
79461;BME280;68929;42.666;23.324;2023-11-19T00:58:25;94492.19;;;5.76;nan
79461;BME280;68929;42.666;23.324;2023-11-19T01:00:50;94513.06;;;6.05;nan
79461;BME280;68929;42.666;23.324;2023-11-19T01:03:15;94522.53;;;6.06;nan
79461;BME280;68929;42.666;23.324;2023-11-19T01:05:41;94505.56;;;6.91;nan
79461;BME280;68929;42.666;23.324;2023-11-19T01:08:07;94530.66;;;6.38;nan
79461;BME280;68929;42.666;23.324;2023-11-19T01:10:33;94530.19;;;6.84;nan
79461;BME280;68929;42.666;23.324;2023-11-19T01:12:59;94527.44;;;6.98;nan
79461;BME280;68929;42.666;23.324;2023-11-19T01:15:24;94526.28;;;5.97;nan
79461;BME280;68929;42.666;23.324;2023-11-19T01:17:50;94524.47;;;6.46;nan
79461;BME280;68929;42.666;23.324;2023-11-19T01:20:15;94514.53;;;7.10;nan
79461;BME280;68929;42.666;23.324;2023-11-19T01:22:41;94536.66;;;7.28;nan
79461;BME280;68929;42.666;23.324;2023-11-19T01:25:06;94521.47;;;7.24;nan
79461;BME280;68929;42.666;23.324;2023-11-19T01:27:33;94520.63;;;7.10;nan
79461;BME280;68929;42.666;23.324;2023-11-19T01:30:02;94526.34;;;6.52;nan
79461;BME280;68929;42.666;23.324;2023-11-19T01:32:34;94502.44;;;6.75;nan
79461;BME280;68929;42.666;23.324;2023-11-19T01:35:00;94534.34;;;7.60;nan
79461;BME280;68929;42.666;23.324;2023-11-19T01:37:26;94536.19;;;7.59;nan
79461;BME280;68929;42.666;23.324;2023-11-19T01:39:51;94526.47;;;6.44;nan
79461;BME280;68929;42.666;23.324;2023-11-19T01:42:17;94519.34;;;7.00;nan
79461;BME280;68929;42.666;23.324;2023-11-19T01:44:42;94544.75;;;6.31;nan
79461;BME280;68929;42.666;23.324;2023-11-19T01:47:08;94538.25;;;6.27;nan
79461;BME280;68929;42.666;23.324;2023-11-19T01:49:34;94539.72;;;6.91;nan
79461;BME280;68929;42.666;23.324;2023-11-19T01:52:00;94547.81;;;6.62;nan
79461;BME280;68929;42.666;23.324;2023-11-19T01:54:25;94556.38;;;5.80;nan
79461;BME280;68929;42.666;23.324;2023-11-19T01:56:52;94534.53;;;6.15;nan
79461;BME280;68929;42.666;23.324;2023-11-19T01:59:23;94533.63;;;6.91;nan
79461;BME280;68929;42.666;23.324;2023-11-19T02:01:53;94530.09;;;7.59;nan
79461;BME280;68929;42.666;23.324;2023-11-19T02:04:20;94513.91;;;7.62;nan
79461;BME280;68929;42.666;23.324;2023-11-19T02:06:48;94519.47;;;7.33;nan
79461;BME280;68929;42.666;23.324;2023-11-19T02:09:17;94537.06;;;8.05;nan
79461;BME280;68929;42.666;23.324;2023-11-19T02:11:45;94513.69;;;6.96;nan
79461;BME280;68929;42.666;23.324;2023-11-19T02:14:13;94526.31;;;6.24;nan
79461;BME280;68929;42.666;23.324;2023-11-19T02:16:38;94518.53;;;5.46;nan
79461;BME280;68929;42.666;23.324;2023-11-19T02:19:03;94503.00;;;5.30;nan
79461;BME280;68929;42.666;23.324;2023-11-19T02:21:31;94517.72;;;5.67;nan
79461;BME280;68929;42.666;23.324;2023-11-19T02:23:57;94511.69;;;5.88;nan
79461;BME280;68929;42.666;23.324;2023-11-19T02:29:00;94515.78;;;5.97;nan
79461;BME280;68929;42.666;23.324;2023-11-19T02:31:25;94518.50;;;6.59;nan
79461;BME280;68929;42.666;23.324;2023-11-19T02:33:52;94538.13;;;5.72;nan
79461;BME280;68929;42.666;23.324;2023-11-19T02:36:18;94526.25;;;5.54;nan
79461;BME280;68929;42.666;23.324;2023-11-19T02:38:43;94524.78;;;6.92;nan
79461;BME280;68929;42.666;23.324;2023-11-19T02:41:09;94520.19;;;7.13;nan
79461;BME280;68929;42.666;23.324;2023-11-19T02:43:35;94531.19;;;7.23;nan
79461;BME280;68929;42.666;23.324;2023-11-19T02:46:03;94532.59;;;6.85;nan
79461;BME280;68929;42.666;23.324;2023-11-19T02:48:35;94543.97;;;6.92;nan
79461;BME280;68929;42.666;23.324;2023-11-19T02:51:04;94544.63;;;5.76;nan
79461;BME280;68929;42.666;23.324;2023-11-19T02:53:30;94555.66;;;6.07;nan
79461;BME280;68929;42.666;23.324;2023-11-19T02:55:57;94504.22;;;7.08;nan
79461;BME280;68929;42.666;23.324;2023-11-19T02:58:31;94484.38;;;6.59;nan
79461;BME280;68929;42.666;23.324;2023-11-19T03:00:57;94495.31;;;6.07;nan
79461;BME280;68929;42.666;23.324;2023-11-19T03:03:28;94488.31;;;5.50;nan
79461;BME280;68929;42.666;23.324;2023-11-19T03:05:57;94518.88;;;4.78;nan
79461;BME280;68929;42.666;23.324;2023-11-19T03:08:22;94504.03;;;5.50;nan
79461;BME280;68929;42.666;23.324;2023-11-19T03:10:48;94501.50;;;5.42;nan
79461;BME280;68929;42.666;23.324;2023-11-19T03:13:14;94524.78;;;5.66;nan
79461;BME280;68929;42.666;23.324;2023-11-19T03:15:40;94534.06;;;6.05;nan
79461;BME280;68929;42.666;23.324;2023-11-19T03:18:06;94515.16;;;6.71;nan
79461;BME280;68929;42.666;23.324;2023-11-19T03:20:32;94515.53;;;5.71;nan
79461;BME280;68929;42.666;23.324;2023-11-19T03:23:03;94501.00;;;5.32;nan
79461;BME280;68929;42.666;23.324;2023-11-19T03:25:29;94513.50;;;5.51;nan
79461;BME280;68929;42.666;23.324;2023-11-19T03:28:02;94509.28;;;5.50;nan
79461;BME280;68929;42.666;23.324;2023-11-19T03:30:28;94493.63;;;5.21;nan
79461;BME280;68929;42.666;23.324;2023-11-19T03:32:55;94518.81;;;5.94;nan
79461;BME280;68929;42.666;23.324;2023-11-19T03:35:20;94520.50;;;6.29;nan
79461;BME280;68929;42.666;23.324;2023-11-19T03:37:46;94525.47;;;6.73;nan
79461;BME280;68929;42.666;23.324;2023-11-19T03:40:11;94537.72;;;6.59;nan
79461;BME280;68929;42.666;23.324;2023-11-19T03:42:37;94529.84;;;6.59;nan
79461;BME280;68929;42.666;23.324;2023-11-19T03:45:05;94521.81;;;6.39;nan
79461;BME280;68929;42.666;23.324;2023-11-19T03:47:36;94512.88;;;6.34;nan
79461;BME280;68929;42.666;23.324;2023-11-19T03:50:02;94550.34;;;7.11;nan
79461;BME280;68929;42.666;23.324;2023-11-19T03:52:29;94538.22;;;6.48;nan
79461;BME280;68929;42.666;23.324;2023-11-19T03:54:55;94559.44;;;7.08;nan
79461;BME280;68929;42.666;23.324;2023-11-19T03:57:21;94557.03;;;6.03;nan
79461;BME280;68929;42.666;23.324;2023-11-19T03:59:47;94559.91;;;5.72;nan
79461;BME280;68929;42.666;23.324;2023-11-19T04:02:12;94568.41;;;5.38;nan
79461;BME280;68929;42.666;23.324;2023-11-19T04:04:37;94533.16;;;4.76;nan
79461;BME280;68929;42.666;23.324;2023-11-19T04:07:04;94550.63;;;4.17;nan
79461;BME280;68929;42.666;23.324;2023-11-19T04:09:30;94547.63;;;4.20;nan
79461;BME280;68929;42.666;23.324;2023-11-19T04:11:58;94579.00;;;6.44;nan
79461;BME280;68929;42.666;23.324;2023-11-19T04:14:24;94558.50;;;6.33;nan
79461;BME280;68929;42.666;23.324;2023-11-19T04:16:50;94588.19;;;5.41;nan
79461;BME280;68929;42.666;23.324;2023-11-19T04:19:19;94581.81;;;5.14;nan
79461;BME280;68929;42.666;23.324;2023-11-19T04:21:45;94576.44;;;6.29;nan
79461;BME280;68929;42.666;23.324;2023-11-19T04:24:11;94562.38;;;5.74;nan
79461;BME280;68929;42.666;23.324;2023-11-19T04:26:44;94544.63;;;5.04;nan
79461;BME280;68929;42.666;23.324;2023-11-19T04:29:16;94582.66;;;5.15;nan
79461;BME280;68929;42.666;23.324;2023-11-19T04:31:45;94560.88;;;6.28;nan
79461;BME280;68929;42.666;23.324;2023-11-19T04:34:11;94544.53;;;6.05;nan
79461;BME280;68929;42.666;23.324;2023-11-19T04:36:36;94556.47;;;4.71;nan
79461;BME280;68929;42.666;23.324;2023-11-19T04:39:03;94587.56;;;5.39;nan
79461;BME280;68929;42.666;23.324;2023-11-19T04:41:34;94593.63;;;5.39;nan
79461;BME280;68929;42.666;23.324;2023-11-19T04:43:59;94584.56;;;4.92;nan
79461;BME280;68929;42.666;23.324;2023-11-19T04:46:24;94597.00;;;5.04;nan
79461;BME280;68929;42.666;23.324;2023-11-19T04:48:50;94603.50;;;5.37;nan
79461;BME280;68929;42.666;23.324;2023-11-19T04:51:16;94600.34;;;5.78;nan
79461;BME280;68929;42.666;23.324;2023-11-19T04:53:42;94593.09;;;5.80;nan
79461;BME280;68929;42.666;23.324;2023-11-19T04:56:08;94584.25;;;5.66;nan
79461;BME280;68929;42.666;23.324;2023-11-19T04:58:34;94593.94;;;5.15;nan
79461;BME280;68929;42.666;23.324;2023-11-19T05:01:03;94622.00;;;6.43;nan
79461;BME280;68929;42.666;23.324;2023-11-19T05:03:29;94597.94;;;6.18;nan
79461;BME280;68929;42.666;23.324;2023-11-19T05:05:54;94609.88;;;6.97;nan
79461;BME280;68929;42.666;23.324;2023-11-19T05:08:20;94610.84;;;7.17;nan
79461;BME280;68929;42.666;23.324;2023-11-19T05:10:45;94645.28;;;7.01;nan
79461;BME280;68929;42.666;23.324;2023-11-19T05:13:10;94616.44;;;5.75;nan
79461;BME280;68929;42.666;23.324;2023-11-19T05:15:36;94632.03;;;5.97;nan
79461;BME280;68929;42.666;23.324;2023-11-19T05:18:01;94624.88;;;6.27;nan
79461;BME280;68929;42.666;23.324;2023-11-19T05:20:27;94644.31;;;5.76;nan
79461;BME280;68929;42.666;23.324;2023-11-19T05:22:52;94622.50;;;6.11;nan
79461;BME280;68929;42.666;23.324;2023-11-19T05:25:18;94631.38;;;7.07;nan
79461;BME280;68929;42.666;23.324;2023-11-19T05:27:45;94632.25;;;7.14;nan
79461;BME280;68929;42.666;23.324;2023-11-19T05:30:11;94611.13;;;6.04;nan
79461;BME280;68929;42.666;23.324;2023-11-19T05:32:36;94607.31;;;6.76;nan
79461;BME280;68929;42.666;23.324;2023-11-19T05:35:02;94617.81;;;6.76;nan
79461;BME280;68929;42.666;23.324;2023-11-19T05:37:28;94609.38;;;5.90;nan
79461;BME280;68929;42.666;23.324;2023-11-19T05:39:53;94618.88;;;6.33;nan
79461;BME280;68929;42.666;23.324;2023-11-19T05:42:19;94628.50;;;6.26;nan
79461;BME280;68929;42.666;23.324;2023-11-19T05:44:44;94652.75;;;6.07;nan
79461;BME280;68929;42.666;23.324;2023-11-19T05:47:09;94614.66;;;5.60;nan
79461;BME280;68929;42.666;23.324;2023-11-19T05:49:35;94635.50;;;5.98;nan
79461;BME280;68929;42.666;23.324;2023-11-19T05:52:00;94636.25;;;6.13;nan
79461;BME280;68929;42.666;23.324;2023-11-19T05:54:28;94641.94;;;5.81;nan
79461;BME280;68929;42.666;23.324;2023-11-19T05:56:53;94630.63;;;6.37;nan
79461;BME280;68929;42.666;23.324;2023-11-19T05:59:20;94627.91;;;4.94;nan
79461;BME280;68929;42.666;23.324;2023-11-19T06:01:45;94641.81;;;5.38;nan
79461;BME280;68929;42.666;23.324;2023-11-19T06:04:11;94647.72;;;5.91;nan
79461;BME280;68929;42.666;23.324;2023-11-19T06:06:37;94630.91;;;5.71;nan
79461;BME280;68929;42.666;23.324;2023-11-19T06:09:03;94665.09;;;5.92;nan
79461;BME280;68929;42.666;23.324;2023-11-19T06:11:29;94657.69;;;4.93;nan
79461;BME280;68929;42.666;23.324;2023-11-19T06:13:55;94655.59;;;4.37;nan
79461;BME280;68929;42.666;23.324;2023-11-19T06:16:22;94657.28;;;5.19;nan
79461;BME280;68929;42.666;23.324;2023-11-19T06:18:48;94627.28;;;3.95;nan
79461;BME280;68929;42.666;23.324;2023-11-19T06:21:13;94649.59;;;5.46;nan
79461;BME280;68929;42.666;23.324;2023-11-19T06:23:39;94666.84;;;5.26;nan
79461;BME280;68929;42.666;23.324;2023-11-19T06:26:05;94638.06;;;4.74;nan
79461;BME280;68929;42.666;23.324;2023-11-19T06:28:31;94635.69;;;5.02;nan
79461;BME280;68929;42.666;23.324;2023-11-19T06:30:56;94665.19;;;4.81;nan
79461;BME280;68929;42.666;23.324;2023-11-19T06:33:24;94656.63;;;4.88;nan
79461;BME280;68929;42.666;23.324;2023-11-19T06:35:49;94635.28;;;4.76;nan
79461;BME280;68929;42.666;23.324;2023-11-19T06:38:15;94661.16;;;5.37;nan
79461;BME280;68929;42.666;23.324;2023-11-19T06:40:40;94664.16;;;4.68;nan
79461;BME280;68929;42.666;23.324;2023-11-19T06:43:06;94646.34;;;5.30;nan
79461;BME280;68929;42.666;23.324;2023-11-19T06:45:34;94681.56;;;4.98;nan
79461;BME280;68929;42.666;23.324;2023-11-19T06:48:03;94665.66;;;5.43;nan
79461;BME280;68929;42.666;23.324;2023-11-19T06:50:30;94667.22;;;5.38;nan
79461;BME280;68929;42.666;23.324;2023-11-19T06:52:55;94671.91;;;5.28;nan
79461;BME280;68929;42.666;23.324;2023-11-19T06:55:21;94653.75;;;5.26;nan
79461;BME280;68929;42.666;23.324;2023-11-19T06:57:46;94651.63;;;6.16;nan
79461;BME280;68929;42.666;23.324;2023-11-19T07:00:12;94673.09;;;5.25;nan
79461;BME280;68929;42.666;23.324;2023-11-19T07:02:37;94692.97;;;5.34;nan
79461;BME280;68929;42.666;23.324;2023-11-19T07:05:03;94694.06;;;5.54;nan
79461;BME280;68929;42.666;23.324;2023-11-19T07:07:33;94646.50;;;4.47;nan
79461;BME280;68929;42.666;23.324;2023-11-19T07:09:59;94675.72;;;4.59;nan
79461;BME280;68929;42.666;23.324;2023-11-19T07:12:24;94687.16;;;6.54;nan
79461;BME280;68929;42.666;23.324;2023-11-19T07:14:52;94686.19;;;7.10;nan
79461;BME280;68929;42.666;23.324;2023-11-19T07:17:18;94676.25;;;6.15;nan
79461;BME280;68929;42.666;23.324;2023-11-19T07:19:45;94683.19;;;5.87;nan
79461;BME280;68929;42.666;23.324;2023-11-19T07:22:11;94693.50;;;5.74;nan
79461;BME280;68929;42.666;23.324;2023-11-19T07:24:39;94705.94;;;6.01;nan
79461;BME280;68929;42.666;23.324;2023-11-19T07:27:04;94688.44;;;5.28;nan
79461;BME280;68929;42.666;23.324;2023-11-19T07:29:34;94680.22;;;5.31;nan
79461;BME280;68929;42.666;23.324;2023-11-19T07:31:59;94697.06;;;4.85;nan
79461;BME280;68929;42.666;23.324;2023-11-19T07:34:27;94725.34;;;4.90;nan
79461;BME280;68929;42.666;23.324;2023-11-19T07:36:52;94706.44;;;5.60;nan
79461;BME280;68929;42.666;23.324;2023-11-19T07:39:18;94705.09;;;5.35;nan
79461;BME280;68929;42.666;23.324;2023-11-19T07:41:44;94700.91;;;5.26;nan
79461;BME280;68929;42.666;23.324;2023-11-19T07:44:09;94738.28;;;4.46;nan
79461;BME280;68929;42.666;23.324;2023-11-19T07:46:35;94727.31;;;5.98;nan
79461;BME280;68929;42.666;23.324;2023-11-19T07:49:00;94702.25;;;6.31;nan
79461;BME280;68929;42.666;23.324;2023-11-19T07:51:27;94718.50;;;6.41;nan
79461;BME280;68929;42.666;23.324;2023-11-19T07:53:53;94726.06;;;6.65;nan
79461;BME280;68929;42.666;23.324;2023-11-19T07:56:18;94727.91;;;6.50;nan
79461;BME280;68929;42.666;23.324;2023-11-19T07:58:44;94723.69;;;5.55;nan
79461;BME280;68929;42.666;23.324;2023-11-19T08:01:09;94720.09;;;5.71;nan
79461;BME280;68929;42.666;23.324;2023-11-19T08:03:35;94709.13;;;6.11;nan
79461;BME280;68929;42.666;23.324;2023-11-19T08:06:00;94732.06;;;6.59;nan
79461;BME280;68929;42.666;23.324;2023-11-19T08:08:26;94730.59;;;4.90;nan
79461;BME280;68929;42.666;23.324;2023-11-19T08:10:54;94745.63;;;4.73;nan
79461;BME280;68929;42.666;23.324;2023-11-19T08:13:21;94737.28;;;5.58;nan
79461;BME280;68929;42.666;23.324;2023-11-19T08:15:47;94724.31;;;4.53;nan
79461;BME280;68929;42.666;23.324;2023-11-19T08:18:12;94737.72;;;5.47;nan
79461;BME280;68929;42.666;23.324;2023-11-19T08:20:38;94747.06;;;5.94;nan
79461;BME280;68929;42.666;23.324;2023-11-19T08:23:04;94716.72;;;7.11;nan
79461;BME280;68929;42.666;23.324;2023-11-19T08:25:30;94744.25;;;6.67;nan
79461;BME280;68929;42.666;23.324;2023-11-19T08:27:55;94748.44;;;6.61;nan
79461;BME280;68929;42.666;23.324;2023-11-19T08:30:21;94714.03;;;5.70;nan
79461;BME280;68929;42.666;23.324;2023-11-19T08:32:46;94748.59;;;5.44;nan
79461;BME280;68929;42.666;23.324;2023-11-19T08:35:12;94733.09;;;5.49;nan
79461;BME280;68929;42.666;23.324;2023-11-19T08:37:37;94734.84;;;5.05;nan
79461;BME280;68929;42.666;23.324;2023-11-19T08:40:04;94758.69;;;5.77;nan
79461;BME280;68929;42.666;23.324;2023-11-19T08:42:30;94748.25;;;6.63;nan
79461;BME280;68929;42.666;23.324;2023-11-19T08:44:55;94740.63;;;6.47;nan
79461;BME280;68929;42.666;23.324;2023-11-19T08:47:21;94736.81;;;5.84;nan
79461;BME280;68929;42.666;23.324;2023-11-19T08:49:48;94746.66;;;5.67;nan
79461;BME280;68929;42.666;23.324;2023-11-19T08:52:13;94749.69;;;6.65;nan
79461;BME280;68929;42.666;23.324;2023-11-19T08:54:42;94741.59;;;7.37;nan
79461;BME280;68929;42.666;23.324;2023-11-19T08:57:07;94743.44;;;7.43;nan
79461;BME280;68929;42.666;23.324;2023-11-19T08:59:34;94772.81;;;6.19;nan
79461;BME280;68929;42.666;23.324;2023-11-19T09:01:59;94733.28;;;5.33;nan
79461;BME280;68929;42.666;23.324;2023-11-19T09:04:25;94756.81;;;6.00;nan
79461;BME280;68929;42.666;23.324;2023-11-19T09:06:50;94713.06;;;6.21;nan
79461;BME280;68929;42.666;23.324;2023-11-19T09:09:18;94715.88;;;7.04;nan
79461;BME280;68929;42.666;23.324;2023-11-19T09:11:44;94714.91;;;6.42;nan
79461;BME280;68929;42.666;23.324;2023-11-19T09:14:11;94710.53;;;6.13;nan
79461;BME280;68929;42.666;23.324;2023-11-19T09:16:37;94713.50;;;6.25;nan
79461;BME280;68929;42.666;23.324;2023-11-19T09:19:03;94717.19;;;5.95;nan
79461;BME280;68929;42.666;23.324;2023-11-19T09:21:28;94706.78;;;5.57;nan
79461;BME280;68929;42.666;23.324;2023-11-19T09:23:57;94701.28;;;5.82;nan
79461;BME280;68929;42.666;23.324;2023-11-19T09:26:23;94727.72;;;6.73;nan
79461;BME280;68929;42.666;23.324;2023-11-19T09:28:49;94752.75;;;6.90;nan
79461;BME280;68929;42.666;23.324;2023-11-19T09:31:18;94734.66;;;7.01;nan
79461;BME280;68929;42.666;23.324;2023-11-19T09:33:44;94735.91;;;6.84;nan
79461;BME280;68929;42.666;23.324;2023-11-19T09:36:14;94727.22;;;6.63;nan
79461;BME280;68929;42.666;23.324;2023-11-19T09:38:42;94703.72;;;5.54;nan
79461;BME280;68929;42.666;23.324;2023-11-19T09:41:07;94698.63;;;6.11;nan
79461;BME280;68929;42.666;23.324;2023-11-19T09:43:35;94699.44;;;6.32;nan
79461;BME280;68929;42.666;23.324;2023-11-19T09:46:05;94679.75;;;6.85;nan
79461;BME280;68929;42.666;23.324;2023-11-19T09:48:35;94684.59;;;7.44;nan
79461;BME280;68929;42.666;23.324;2023-11-19T09:51:02;94675.31;;;7.48;nan
79461;BME280;68929;42.666;23.324;2023-11-19T09:53:28;94668.38;;;7.34;nan
79461;BME280;68929;42.666;23.324;2023-11-19T09:55:55;94665.59;;;8.36;nan
79461;BME280;68929;42.666;23.324;2023-11-19T09:58:20;94665.94;;;7.39;nan
79461;BME280;68929;42.666;23.324;2023-11-19T10:00:47;94656.34;;;6.90;nan
79461;BME280;68929;42.666;23.324;2023-11-19T10:03:13;94675.53;;;6.63;nan
79461;BME280;68929;42.666;23.324;2023-11-19T10:05:39;94651.63;;;6.58;nan
79461;BME280;68929;42.666;23.324;2023-11-19T10:08:05;94681.91;;;7.65;nan
79461;BME280;68929;42.666;23.324;2023-11-19T10:10:31;94655.66;;;7.09;nan
79461;BME280;68929;42.666;23.324;2023-11-19T10:12:56;94658.31;;;7.44;nan
79461;BME280;68929;42.666;23.324;2023-11-19T10:15:24;94654.28;;;7.48;nan
79461;BME280;68929;42.666;23.324;2023-11-19T10:17:57;94648.75;;;7.77;nan
79461;BME280;68929;42.666;23.324;2023-11-19T10:20:22;94653.16;;;7.01;nan
79461;BME280;68929;42.666;23.324;2023-11-19T10:22:48;94657.72;;;5.22;nan
79461;BME280;68929;42.666;23.324;2023-11-19T10:25:28;94671.44;;;4.95;nan
79461;BME280;68929;42.666;23.324;2023-11-19T10:27:56;94673.38;;;6.10;nan
79461;BME280;68929;42.666;23.324;2023-11-19T10:30:27;94669.25;;;6.43;nan
79461;BME280;68929;42.666;23.324;2023-11-19T10:33:03;94661.00;;;6.67;nan
79461;BME280;68929;42.666;23.324;2023-11-19T10:35:31;94633.75;;;6.05;nan
79461;BME280;68929;42.666;23.324;2023-11-19T10:37:59;94659.00;;;6.27;nan
79461;BME280;68929;42.666;23.324;2023-11-19T10:40:37;94659.16;;;6.61;nan
79461;BME280;68929;42.666;23.324;2023-11-19T10:43:05;94655.75;;;6.95;nan
79461;BME280;68929;42.666;23.324;2023-11-19T10:45:33;94670.25;;;7.87;nan
79461;BME280;68929;42.666;23.324;2023-11-19T10:47:59;94660.97;;;6.88;nan
79461;BME280;68929;42.666;23.324;2023-11-19T10:50:25;94642.50;;;6.33;nan
79461;BME280;68929;42.666;23.324;2023-11-19T10:52:56;94668.63;;;7.11;nan
79461;BME280;68929;42.666;23.324;2023-11-19T10:55:27;94692.50;;;7.84;nan
79461;BME280;68929;42.666;23.324;2023-11-19T10:57:59;94664.88;;;7.61;nan
79461;BME280;68929;42.666;23.324;2023-11-19T11:00:25;94642.50;;;7.09;nan
79461;BME280;68929;42.666;23.324;2023-11-19T11:02:55;94651.88;;;7.53;nan
79461;BME280;68929;42.666;23.324;2023-11-19T11:05:22;94666.94;;;8.19;nan
79461;BME280;68929;42.666;23.324;2023-11-19T11:07:49;94643.03;;;7.67;nan
79461;BME280;68929;42.666;23.324;2023-11-19T11:10:16;94640.97;;;7.56;nan
79461;BME280;68929;42.666;23.324;2023-11-19T11:12:43;94612.53;;;7.32;nan
79461;BME280;68929;42.666;23.324;2023-11-19T11:15:11;94616.47;;;8.22;nan
79461;BME280;68929;42.666;23.324;2023-11-19T11:17:41;94625.91;;;8.77;nan
79461;BME280;68929;42.666;23.324;2023-11-19T11:20:08;94588.47;;;7.95;nan
79461;BME280;68929;42.666;23.324;2023-11-19T11:33:26;94623.22;;;7.71;nan
79461;BME280;68929;42.666;23.324;2023-11-19T11:36:20;94627.19;;;7.54;nan
79461;BME280;68929;42.666;23.324;2023-11-19T11:38:49;94624.72;;;5.93;nan
79461;BME280;68929;42.666;23.324;2023-11-19T11:41:22;94609.97;;;7.45;nan
79461;BME280;68929;42.666;23.324;2023-11-19T11:43:50;94586.78;;;7.68;nan
79461;BME280;68929;42.666;23.324;2023-11-19T11:49:07;94603.16;;;7.70;nan
79461;BME280;68929;42.666;23.324;2023-11-19T11:57:04;94594.91;;;6.91;nan
79461;BME280;68929;42.666;23.324;2023-11-19T11:59:36;94585.63;;;5.98;nan
79461;BME280;68929;42.666;23.324;2023-11-19T12:02:03;94614.56;;;5.68;nan
79461;BME280;68929;42.666;23.324;2023-11-19T12:04:28;94596.50;;;6.37;nan
79461;BME280;68929;42.666;23.324;2023-11-19T12:07:24;94600.44;;;6.75;nan
79461;BME280;68929;42.666;23.324;2023-11-19T12:10:09;94584.75;;;6.82;nan
79461;BME280;68929;42.666;23.324;2023-11-19T12:12:37;94571.91;;;7.41;nan
79461;BME280;68929;42.666;23.324;2023-11-19T12:15:06;94575.50;;;7.87;nan
79461;BME280;68929;42.666;23.324;2023-11-19T12:20:05;94562.63;;;8.97;nan
79461;BME280;68929;42.666;23.324;2023-11-19T12:22:41;94571.59;;;9.97;nan
79461;BME280;68929;42.666;23.324;2023-11-19T12:25:11;94535.91;;;9.44;nan
79461;BME280;68929;42.666;23.324;2023-11-19T12:27:39;94561.34;;;9.19;nan
79461;BME280;68929;42.666;23.324;2023-11-19T12:30:06;94566.25;;;10.17;nan
79461;BME280;68929;42.666;23.324;2023-11-19T12:32:41;94561.44;;;8.79;nan
79461;BME280;68929;42.666;23.324;2023-11-19T12:35:08;94551.25;;;9.03;nan
79461;BME280;68929;42.666;23.324;2023-11-19T12:37:47;94532.22;;;8.88;nan
79461;BME280;68929;42.666;23.324;2023-11-19T12:40:17;94552.50;;;8.15;nan
79461;BME280;68929;42.666;23.324;2023-11-19T12:42:44;94534.06;;;8.80;nan
79461;BME280;68929;42.666;23.324;2023-11-19T12:45:10;94539.00;;;9.34;nan
79461;BME280;68929;42.666;23.324;2023-11-19T12:47:43;94553.91;;;8.90;nan
79461;BME280;68929;42.666;23.324;2023-11-19T12:50:10;94529.03;;;9.81;nan
79461;BME280;68929;42.666;23.324;2023-11-19T12:52:39;94534.91;;;9.45;nan
79461;BME280;68929;42.666;23.324;2023-11-19T12:55:06;94525.13;;;8.16;nan
79461;BME280;68929;42.666;23.324;2023-11-19T12:57:49;94534.19;;;7.74;nan
79461;BME280;68929;42.666;23.324;2023-11-19T13:00:25;94526.13;;;7.89;nan
79461;BME280;68929;42.666;23.324;2023-11-19T13:02:53;94526.16;;;8.02;nan
79461;BME280;68929;42.666;23.324;2023-11-19T13:08:04;94540.06;;;7.22;nan
79461;BME280;68929;42.666;23.324;2023-11-19T13:10:34;94521.97;;;7.47;nan
79461;BME280;68929;42.666;23.324;2023-11-19T13:13:20;94527.34;;;8.91;nan
79461;BME280;68929;42.666;23.324;2023-11-19T13:15:46;94533.03;;;8.95;nan
79461;BME280;68929;42.666;23.324;2023-11-19T13:18:12;94525.28;;;9.13;nan
79461;BME280;68929;42.666;23.324;2023-11-19T13:20:40;94526.84;;;9.27;nan
79461;BME280;68929;42.666;23.324;2023-11-19T13:23:06;94517.88;;;8.57;nan
79461;BME280;68929;42.666;23.324;2023-11-19T13:25:35;94502.44;;;7.76;nan
79461;BME280;68929;42.666;23.324;2023-11-19T13:28:01;94479.94;;;7.67;nan
79461;BME280;68929;42.666;23.324;2023-11-19T13:30:27;94494.94;;;8.77;nan
79461;BME280;68929;42.666;23.324;2023-11-19T13:32:53;94507.56;;;9.26;nan
79461;BME280;68929;42.666;23.324;2023-11-19T13:35:21;94482.16;;;10.07;nan
79461;BME280;68929;42.666;23.324;2023-11-19T13:37:47;94521.53;;;10.47;nan
79461;BME280;68929;42.666;23.324;2023-11-19T13:40:14;94506.13;;;8.53;nan
79461;BME280;68929;42.666;23.324;2023-11-19T13:42:41;94510.59;;;8.27;nan
79461;BME280;68929;42.666;23.324;2023-11-19T13:45:11;94511.13;;;9.01;nan
79461;BME280;68929;42.666;23.324;2023-11-19T13:47:42;94510.00;;;9.72;nan
79461;BME280;68929;42.666;23.324;2023-11-19T13:50:15;94524.13;;;9.91;nan